createdAt,value
2022-08-11T00:02:29.524Z,22.44
2022-08-11T00:04:58.980Z,22.35
2022-08-11T00:07:27.936Z,22.29
2022-08-11T00:09:57.889Z,22.31
2022-08-11T00:12:27.790Z,22.24
2022-08-11T00:15:00.571Z,22.16
2022-08-11T00:17:30.760Z,22.17
2022-08-11T00:20:15.315Z,22.21
2022-08-11T00:22:46.655Z,22.23
2022-08-11T00:25:18.749Z,22.29
2022-08-11T00:27:48.463Z,22.32
2022-08-11T00:30:17.587Z,22.28
2022-08-11T00:32:47.213Z,22.22
2022-08-11T00:35:51.761Z,22.27
2022-08-11T00:38:07.459Z,22.20
2022-08-11T00:40:42.965Z,22.13
2022-08-11T00:43:22.175Z,22.20
2022-08-11T00:46:11.567Z,22.14
2022-08-11T00:49:00.485Z,22.14
2022-08-11T00:52:04.515Z,22.04
2022-08-11T00:54:55.590Z,22.04
2022-08-11T00:57:49.164Z,22.03
2022-08-11T01:00:20.573Z,21.98
2022-08-11T01:03:08.804Z,21.99
2022-08-11T01:05:57.617Z,21.86
2022-08-11T01:08:47.777Z,21.82
2022-08-11T01:11:55.348Z,21.74
2022-08-11T01:15:09.847Z,21.89
2022-08-11T01:18:13.016Z,21.82
2022-08-11T01:21:07.786Z,21.82
2022-08-11T01:24:12.822Z,21.62
2022-08-11T01:27:18.989Z,21.64
2022-08-11T01:30:24.057Z,21.48
2022-08-11T01:33:11.620Z,21.46
2022-08-11T01:36:18.798Z,21.41
2022-08-11T01:39:31.587Z,21.32
2022-08-11T01:42:38.917Z,21.25
2022-08-11T01:45:36.240Z,21.36
2022-08-11T01:48:07.881Z,21.31
2022-08-11T01:50:54.924Z,21.36
2022-08-11T01:53:31.737Z,21.39
2022-08-11T01:56:13.191Z,21.35
2022-08-11T01:58:47.203Z,21.34
2022-08-11T02:01:31.050Z,21.24
2022-08-11T02:04:09.954Z,21.32
2022-08-11T02:06:58.248Z,21.26
2022-08-11T02:09:49.474Z,21.30
2022-08-11T02:12:39.842Z,21.32
2022-08-11T02:15:27.638Z,21.23
2022-08-11T02:18:05.056Z,21.09
2022-08-11T02:20:59.795Z,21.16
2022-08-11T02:24:07.092Z,21.14
2022-08-11T02:26:38.084Z,21.20
2022-08-11T02:29:16.635Z,21.14
2022-08-11T02:32:23.954Z,21.23
2022-08-11T02:35:02.920Z,21.26
2022-08-11T02:37:46.888Z,21.17
2022-08-11T02:40:31.137Z,21.07
2022-08-11T02:43:24.768Z,21.09
2022-08-11T02:46:02.117Z,20.91
2022-08-11T02:48:58.619Z,20.91
2022-08-11T02:51:36.180Z,20.89
2022-08-11T02:54:11.146Z,20.87
2022-08-11T02:56:52.072Z,20.86
2022-08-11T02:59:52.337Z,20.79
2022-08-11T03:02:43.564Z,20.69
2022-08-11T03:05:23.484Z,20.65
2022-08-11T03:08:06.498Z,20.68
2022-08-11T03:10:42.505Z,20.69
2022-08-11T03:13:37.739Z,20.70
2022-08-11T03:16:33.469Z,20.60
2022-08-11T03:19:04.625Z,20.56
2022-08-11T03:22:01.662Z,20.51
2022-08-11T03:24:32.499Z,20.57
2022-08-11T03:27:08.459Z,20.51
2022-08-11T03:29:43.843Z,20.46
2022-08-11T03:32:23.947Z,20.47
2022-08-11T03:34:52.552Z,20.43
2022-08-11T03:37:52.092Z,20.36
2022-08-11T03:40:58.850Z,20.45
2022-08-11T03:43:58.099Z,20.41
2022-08-11T03:46:39.583Z,20.42
2022-08-11T03:49:24.249Z,20.40
2022-08-11T03:51:57.498Z,20.33
2022-08-11T03:54:34.116Z,20.28
2022-08-11T03:57:43.589Z,20.18
2022-08-11T04:00:30.562Z,20.28
2022-08-11T04:03:40.423Z,20.23
2022-08-11T04:06:50.047Z,20.22
2022-08-11T04:09:54.654Z,20.14
2022-08-11T04:13:01.239Z,20.09
2022-08-11T04:16:11.728Z,20.17
2022-08-11T04:19:11.113Z,20.10
2022-08-11T04:22:20.204Z,20.04
2022-08-11T04:25:14.911Z,20.03
2022-08-11T04:28:28.318Z,19.95
2022-08-11T04:31:10.199Z,19.81
2022-08-11T04:34:01.433Z,19.93
2022-08-11T04:37:00.253Z,19.85
2022-08-11T04:39:52.294Z,19.85
2022-08-11T04:43:17.877Z,19.92
2022-08-11T04:46:08.061Z,19.82
2022-08-11T04:49:24.948Z,19.82
2022-08-11T04:52:38.253Z,19.88
2022-08-11T04:56:01.089Z,19.86
2022-08-11T04:59:08.038Z,19.95
2022-08-11T05:01:49.582Z,19.85
2022-08-11T05:05:10.177Z,19.84
2022-08-11T05:08:03.570Z,19.91
2022-08-11T05:10:48.084Z,19.93
2022-08-11T05:13:46.406Z,19.94
2022-08-11T05:16:37.035Z,20.01
2022-08-11T05:19:23.753Z,20.01
2022-08-11T05:22:12.675Z,20.02
2022-08-11T05:25:02.658Z,20.12
2022-08-11T05:28:00.676Z,20.16
2022-08-11T05:30:47.982Z,20.16
2022-08-11T05:33:42.472Z,20.24
2022-08-11T05:36:17.606Z,20.39
2022-08-11T05:39:14.812Z,20.38
2022-08-11T05:42:00.548Z,20.46
2022-08-11T05:44:48.096Z,20.45
2022-08-11T05:47:41.185Z,20.68
2022-08-11T05:50:32.979Z,20.77
2022-08-11T05:53:19.868Z,20.86
2022-08-11T05:56:05.537Z,20.86
2022-08-11T05:58:41.359Z,20.93
2022-08-11T06:01:11.613Z,20.96
2022-08-11T06:03:57.953Z,21.01
2022-08-11T06:06:29.190Z,21.02
2022-08-11T06:08:58.709Z,21.09
2022-08-11T06:11:44.308Z,21.22
2022-08-11T06:14:15.298Z,21.31
2022-08-11T06:16:44.265Z,21.42
2022-08-11T06:19:12.887Z,21.48
2022-08-11T06:21:46.248Z,21.56
2022-08-11T06:24:15.373Z,21.61
2022-08-11T06:27:11.127Z,21.74
2022-08-11T06:29:48.018Z,21.84
2022-08-11T06:32:25.353Z,21.93
2022-08-11T06:35:04.446Z,21.98
2022-08-11T06:37:46.662Z,21.92
2022-08-11T06:40:27.401Z,22.06
2022-08-11T06:43:02.110Z,22.12
2022-08-11T06:45:35.101Z,22.21
2022-08-11T06:48:06.428Z,22.32
2022-08-11T06:50:52.272Z,22.36
2022-08-11T06:53:21.947Z,22.44
2022-08-11T06:56:08.134Z,22.46
2022-08-11T06:58:55.907Z,22.49
2022-08-11T07:01:49.260Z,22.48
2022-08-11T07:04:43.110Z,22.59
2022-08-11T07:08:33.134Z,22.65
2022-08-11T07:11:17.495Z,22.74
2022-08-11T07:14:03.556Z,22.83
2022-08-11T07:16:34.699Z,22.87
2022-08-11T07:19:25.026Z,22.94
2022-08-11T07:22:11.837Z,22.98
2022-08-11T07:25:02.997Z,23.06
2022-08-11T07:28:00.342Z,23.14
2022-08-11T07:30:28.581Z,23.23
2022-08-11T07:32:59.033Z,23.28
2022-08-11T07:35:33.980Z,23.32
2022-08-11T07:38:06.891Z,23.40
2022-08-11T07:40:36.243Z,23.45
2022-08-11T07:43:06.891Z,23.48
2022-08-11T07:45:53.038Z,23.57
2022-08-11T07:48:39.437Z,23.67
2022-08-11T07:51:25.116Z,23.68
2022-08-11T07:53:58.435Z,23.79
2022-08-11T07:56:55.210Z,23.82
2022-08-11T07:59:58.697Z,23.90
2022-08-11T08:02:50.063Z,23.95
2022-08-11T08:05:36.429Z,23.96
2022-08-11T08:08:23.207Z,24.08
2022-08-11T08:11:08.580Z,24.13
2022-08-11T08:13:55.487Z,24.20
2022-08-11T08:16:42.600Z,24.21
2022-08-11T08:19:13.319Z,24.31
2022-08-11T08:21:41.469Z,24.38
2022-08-11T08:24:14.026Z,24.49
2022-08-11T08:27:03.047Z,24.55
2022-08-11T08:29:52.298Z,24.59
2022-08-11T08:32:22.661Z,24.67
2022-08-11T08:34:52.581Z,24.72
2022-08-11T08:37:46.398Z,24.82
2022-08-11T08:40:12.094Z,24.91
2022-08-11T08:42:45.298Z,25.05
2022-08-11T08:45:15.803Z,25.12
2022-08-11T08:47:52.967Z,25.19
2022-08-11T08:50:46.830Z,25.26
2022-08-11T08:53:16.041Z,25.32
2022-08-11T08:55:46.609Z,25.46
2022-08-11T08:58:16.605Z,25.56
2022-08-11T09:00:47.384Z,25.67
2022-08-11T09:03:40.579Z,25.81
2022-08-11T09:06:04.557Z,25.86
2022-08-11T09:08:33.579Z,25.99
2022-08-11T09:11:19.642Z,26.12
2022-08-11T09:14:03.145Z,26.31
2022-08-11T09:16:33.794Z,26.41
2022-08-11T09:19:03.816Z,26.50
2022-08-11T09:21:48.193Z,26.60
2022-08-11T09:24:34.983Z,26.69
2022-08-11T09:27:07.068Z,26.83
2022-08-11T09:29:35.929Z,26.98
2022-08-11T09:32:06.999Z,27.13
2022-08-11T09:34:37.530Z,27.20
2022-08-11T09:37:55.553Z,27.27
2022-08-11T09:40:33.450Z,27.49
2022-08-11T09:43:21.726Z,27.56
2022-08-11T09:45:51.764Z,27.69
2022-08-11T09:48:20.055Z,27.79
2022-08-11T09:50:51.577Z,27.89
2022-08-11T09:53:35.096Z,27.86
2022-08-11T09:56:22.452Z,28.06
2022-08-11T09:58:50.764Z,28.25
2022-08-11T10:01:27.940Z,28.41
2022-08-11T10:04:01.047Z,28.53
2022-08-11T10:06:54.005Z,28.56
2022-08-11T10:09:25.057Z,28.71
2022-08-11T10:11:58.212Z,28.74
2022-08-11T10:14:46.416Z,28.84
2022-08-11T10:17:15.817Z,29.00
2022-08-11T10:20:02.005Z,29.09
2022-08-11T10:22:53.288Z,29.19
2022-08-11T10:25:40.526Z,29.31
2022-08-11T10:28:29.109Z,29.50
2022-08-11T10:31:16.509Z,29.61
2022-08-11T10:34:04.282Z,29.71
2022-08-11T10:36:34.421Z,29.75
2022-08-11T10:39:05.893Z,29.85
2022-08-11T10:42:08.330Z,29.89
2022-08-11T10:44:40.606Z,30.01
2022-08-11T10:47:29.277Z,30.08
2022-08-11T10:50:15.555Z,30.10
2022-08-11T10:53:03.018Z,30.19
2022-08-11T10:55:49.718Z,30.23
2022-08-11T10:58:36.224Z,30.36
2022-08-11T11:01:04.338Z,30.38
2022-08-11T11:03:36.348Z,30.42
2022-08-11T11:06:28.196Z,30.56
2022-08-11T11:09:05.949Z,30.69
2022-08-11T11:11:58.005Z,30.79
2022-08-11T11:14:50.704Z,30.96
2022-08-11T11:17:45.455Z,30.99
2022-08-11T11:20:35.960Z,31.13
2022-08-11T11:23:08.678Z,31.11
2022-08-11T11:26:07.166Z,31.14
2022-08-11T11:29:02.403Z,31.26
2022-08-11T11:31:41.786Z,31.32
2022-08-11T11:34:21.916Z,31.35
2022-08-11T11:36:52.664Z,31.43
2022-08-11T11:39:22.623Z,31.51
2022-08-11T11:41:52.810Z,31.64
2022-08-11T11:44:22.901Z,31.62
2022-08-11T11:46:52.039Z,31.64
2022-08-11T11:51:58.002Z,31.63
2022-08-11T11:54:27.644Z,31.77
2022-08-11T11:56:57.197Z,31.82
2022-08-11T11:59:46.270Z,31.76
2022-08-11T12:02:16.856Z,31.74
2022-08-11T12:04:47.730Z,31.92
2022-08-11T12:07:34.425Z,31.94
2022-08-11T12:10:02.526Z,32.07
2022-08-11T12:12:50.117Z,32.14
2022-08-11T12:15:19.789Z,32.37
2022-08-11T12:18:07.831Z,32.17
2022-08-11T12:20:35.654Z,32.27
2022-08-11T12:23:21.003Z,32.16
2022-08-11T12:26:26.453Z,32.28
2022-08-11T12:28:57.872Z,32.47
2022-08-11T12:31:27.066Z,32.54
2022-08-11T12:33:55.982Z,32.70
2022-08-11T12:36:24.085Z,32.79
2022-08-11T12:38:53.260Z,32.26
2022-08-11T12:41:40.999Z,32.38
2022-08-11T12:44:29.682Z,32.56
2022-08-11T12:47:00.570Z,32.73
2022-08-11T12:49:49.607Z,32.62
2022-08-11T12:52:23.216Z,32.88
2022-08-11T12:54:58.819Z,33.00
2022-08-11T12:57:52.136Z,33.01
2022-08-11T13:00:39.119Z,33.03
2022-08-11T13:03:27.809Z,33.07
2022-08-11T13:05:57.571Z,32.94
2022-08-11T13:08:27.783Z,32.77
2022-08-11T13:11:15.523Z,32.94
2022-08-11T13:13:54.419Z,33.04
2022-08-11T13:16:26.159Z,33.02
2022-08-11T13:18:56.222Z,33.14
2022-08-11T13:21:24.643Z,33.36
2022-08-11T13:24:01.032Z,33.47
2022-08-11T13:26:43.567Z,33.23
2022-08-11T13:29:23.365Z,33.13
2022-08-11T13:31:52.451Z,33.19
2022-08-11T13:34:23.945Z,33.23
2022-08-11T13:36:54.235Z,33.19
2022-08-11T13:39:24.354Z,33.27
2022-08-11T13:41:53.840Z,33.33
2022-08-11T13:44:25.829Z,33.45
2022-08-11T13:46:55.207Z,33.57
2022-08-11T13:49:24.981Z,33.44
2022-08-11T13:51:55.141Z,33.33
2022-08-11T13:54:25.286Z,33.32
2022-08-11T13:56:55.030Z,33.42
2022-08-11T13:59:30.117Z,33.56
2022-08-11T14:02:22.318Z,33.63
2022-08-11T14:04:56.269Z,33.59
2022-08-11T14:07:26.504Z,33.75
2022-08-11T14:09:58.517Z,33.45
2022-08-11T14:12:46.027Z,33.03
2022-08-11T14:15:20.013Z,32.64
2022-08-11T14:17:52.969Z,32.53
2022-08-11T14:20:38.284Z,32.46
2022-08-11T14:23:07.773Z,32.47
2022-08-11T14:26:00.717Z,32.43
2022-08-11T14:28:32.642Z,32.57
2022-08-11T14:31:05.101Z,32.56
2022-08-11T14:33:58.112Z,32.54
2022-08-11T14:36:25.261Z,32.48
2022-08-11T14:38:54.449Z,32.39
2022-08-11T14:42:11.066Z,32.47
2022-08-11T14:44:49.481Z,32.46
2022-08-11T14:47:24.730Z,32.37
2022-08-11T14:49:58.128Z,32.35
2022-08-11T14:52:39.317Z,32.31
2022-08-11T14:55:27.075Z,32.34
2022-08-11T14:57:56.997Z,32.37
2022-08-11T15:00:26.574Z,32.31
2022-08-11T15:03:13.225Z,32.24
2022-08-11T15:05:56.687Z,32.33
2022-08-11T15:08:47.831Z,32.32
2022-08-11T15:11:37.869Z,32.42
2022-08-11T15:14:08.368Z,32.39
2022-08-11T15:16:55.949Z,32.22
2022-08-11T15:19:40.283Z,32.21
2022-08-11T15:22:28.266Z,32.14
2022-08-11T15:24:59.032Z,32.05
2022-08-11T15:27:46.716Z,32.19
2022-08-11T15:30:32.928Z,32.08
2022-08-11T15:33:23.339Z,32.15
2022-08-11T15:36:09.835Z,32.08
2022-08-11T15:38:42.390Z,32.02
2022-08-11T15:41:34.310Z,32.06
2022-08-11T15:44:44.610Z,31.87
2022-08-11T15:47:14.758Z,31.83
2022-08-11T15:50:11.754Z,31.88
2022-08-11T15:52:41.859Z,31.97
2022-08-11T15:55:10.798Z,31.88
2022-08-11T15:57:59.263Z,31.90
2022-08-11T16:00:45.703Z,31.74
2022-08-11T16:04:06.694Z,31.57
2022-08-11T16:06:22.519Z,31.55
2022-08-11T16:08:52.875Z,31.48
2022-08-11T16:11:22.363Z,31.43
2022-08-11T16:14:11.103Z,31.38
2022-08-11T16:16:40.170Z,31.21
2022-08-11T16:19:10.818Z,31.20
2022-08-11T16:21:40.233Z,31.20
2022-08-11T16:27:02.836Z,31.16
2022-08-11T16:27:12.962Z,31.12
2022-08-11T16:29:45.688Z,30.99
2022-08-11T16:32:20.404Z,30.96
2022-08-11T16:35:11.293Z,30.88
2022-08-11T16:37:58.947Z,30.79
2022-08-11T16:40:27.848Z,30.66
2022-08-11T16:43:14.509Z,30.58
2022-08-11T16:46:03.031Z,30.57
2022-08-11T16:48:37.007Z,30.52
2022-08-11T16:51:07.088Z,30.45
2022-08-11T16:53:59.929Z,30.37
2022-08-11T16:56:26.034Z,30.29
2022-08-11T16:59:14.600Z,30.28
2022-08-11T17:01:46.942Z,30.31
2022-08-11T17:04:40.105Z,30.29
2022-08-11T17:07:50.022Z,30.32
2022-08-11T17:10:53.433Z,30.35
2022-08-11T17:13:30.037Z,30.36
2022-08-11T17:16:10.146Z,30.47
2022-08-11T17:18:45.576Z,30.49
2022-08-11T17:21:18.384Z,30.45
2022-08-11T17:23:50.126Z,30.66
2022-08-11T17:26:20.870Z,30.74
2022-08-11T17:28:52.264Z,30.65
2022-08-11T17:31:39.350Z,30.73
2022-08-11T17:34:27.424Z,30.58
2022-08-11T17:36:56.117Z,30.42
2022-08-11T17:39:29.594Z,30.35
2022-08-11T17:42:16.152Z,30.21
2022-08-11T17:45:01.795Z,30.20
2022-08-11T17:47:51.128Z,30.08
2022-08-11T17:50:20.781Z,30.06
2022-08-11T17:53:06.925Z,29.88
2022-08-11T17:56:08.816Z,29.86
2022-08-11T17:58:55.034Z,29.82
2022-08-11T18:01:25.009Z,29.72
2022-08-11T18:03:58.387Z,29.66
2022-08-11T18:06:34.058Z,29.56
2022-08-11T18:09:22.538Z,29.56
2022-08-11T18:12:11.919Z,29.52
2022-08-11T18:14:59.473Z,29.47
2022-08-11T18:17:44.799Z,29.42
2022-08-11T18:20:29.889Z,29.37
2022-08-11T18:23:19.759Z,29.41
2022-08-11T18:26:07.605Z,29.31
2022-08-11T18:28:58.196Z,29.28
2022-08-11T18:31:44.678Z,29.23
2022-08-11T18:34:34.559Z,29.18
2022-08-11T18:37:25.961Z,29.18
2022-08-11T18:40:17.334Z,29.09
2022-08-11T18:43:05.687Z,29.08
2022-08-11T18:45:56.492Z,29.03
2022-08-11T18:48:54.660Z,28.90
2022-08-11T18:51:41.487Z,28.90
2022-08-11T18:54:28.736Z,28.82
2022-08-11T18:57:18.725Z,28.75
2022-08-11T19:00:05.959Z,28.69
2022-08-11T19:02:55.537Z,28.63
2022-08-11T19:06:32.026Z,28.54
2022-08-11T19:08:49.610Z,28.50
2022-08-11T19:11:42.715Z,28.41
2022-08-11T19:14:31.883Z,28.31
2022-08-11T19:17:44.426Z,28.13
2022-08-11T19:20:27.653Z,28.08
2022-08-11T19:23:15.073Z,27.94
2022-08-11T19:26:02.258Z,27.87
2022-08-11T19:28:48.004Z,27.77
2022-08-11T19:31:34.866Z,27.71
2022-08-11T19:34:21.128Z,27.63
2022-08-11T19:37:07.333Z,27.51
2022-08-11T19:39:54.334Z,27.41
2022-08-11T19:42:41.225Z,27.34
2022-08-11T19:45:26.545Z,27.28
2022-08-11T19:48:31.272Z,27.19
2022-08-11T19:51:17.533Z,27.14
2022-08-11T19:54:04.340Z,27.02
2022-08-11T19:56:49.929Z,26.93
2022-08-11T19:59:37.793Z,26.83
2022-08-11T20:02:23.895Z,26.70
2022-08-11T20:05:10.544Z,26.64
2022-08-11T20:07:56.162Z,26.51
2022-08-11T20:10:43.682Z,26.41
2022-08-11T20:13:31.131Z,26.31
2022-08-11T20:16:19.281Z,26.22
2022-08-11T20:19:05.069Z,26.26
2022-08-11T20:21:52.974Z,26.16
2022-08-11T20:24:39.976Z,26.03
2022-08-11T20:27:26.949Z,25.96
2022-08-11T20:30:12.841Z,25.87
2022-08-11T20:32:59.277Z,25.77
2022-08-11T20:35:45.377Z,25.61
2022-08-11T20:38:33.411Z,25.47
2022-08-11T20:41:22.230Z,25.43
2022-08-11T20:44:09.724Z,25.40
2022-08-11T20:46:57.269Z,25.39
2022-08-11T20:49:53.696Z,25.29
2022-08-11T20:52:47.583Z,25.15
2022-08-11T20:55:52.212Z,25.11
2022-08-11T21:01:46.675Z,25.07
2022-08-11T21:04:32.705Z,25.01
2022-08-11T21:07:28.523Z,24.99
2022-08-11T21:10:23.318Z,24.92
2022-08-11T21:13:25.946Z,24.92
2022-08-11T21:16:26.102Z,24.92
2022-08-11T21:19:18.290Z,24.96
2022-08-11T21:22:04.661Z,24.97
2022-08-11T21:24:51.645Z,24.97
2022-08-11T21:27:39.453Z,24.93
2022-08-11T21:30:27.576Z,24.91
2022-08-11T21:33:13.474Z,24.87
2022-08-11T21:36:00.606Z,24.85
2022-08-11T21:38:46.959Z,24.76
2022-08-11T21:41:33.976Z,24.74
2022-08-11T21:44:21.039Z,24.73
2022-08-11T21:47:08.994Z,24.74
2022-08-11T21:49:57.690Z,24.69
2022-08-11T21:52:43.274Z,24.66
2022-08-11T21:55:29.586Z,24.60
2022-08-11T21:58:16.098Z,24.62
2022-08-11T22:01:02.005Z,24.51
2022-08-11T22:03:50.024Z,24.54
2022-08-11T22:06:35.599Z,24.51
2022-08-11T22:09:20.902Z,24.46
2022-08-11T22:12:34.481Z,24.50
2022-08-11T22:15:11.892Z,24.54
2022-08-11T22:17:58.162Z,24.52
2022-08-11T22:20:46.476Z,24.56
2022-08-11T22:23:35.941Z,24.70
2022-08-11T22:26:22.424Z,24.68
2022-08-11T22:29:08.323Z,24.79
2022-08-11T22:31:54.672Z,24.70
2022-08-11T22:34:51.790Z,24.73
2022-08-11T22:37:41.551Z,24.71
2022-08-11T22:40:28.784Z,24.67
2022-08-11T22:43:14.355Z,24.64
2022-08-11T22:45:59.649Z,24.61
2022-08-11T22:48:47.459Z,24.60
2022-08-11T22:51:34.011Z,24.56
2022-08-11T22:54:21.988Z,24.47
2022-08-11T22:57:07.907Z,24.40
2022-08-11T22:59:54.358Z,24.41
2022-08-11T23:02:40.601Z,24.33
2022-08-11T23:05:27.691Z,24.24
2022-08-11T23:08:13.866Z,24.30
2022-08-11T23:11:01.682Z,24.22
2022-08-11T23:13:47.888Z,24.14
2022-08-11T23:16:33.506Z,24.13
2022-08-11T23:20:09.120Z,24.05
2022-08-11T23:22:24.018Z,24.09
2022-08-11T23:25:29.172Z,24.00
2022-08-11T23:28:17.575Z,23.88
2022-08-11T23:31:04.009Z,23.93
2022-08-11T23:33:52.921Z,23.85
2022-08-11T23:36:47.244Z,23.78
2022-08-11T23:39:33.611Z,23.68
2022-08-11T23:42:19.061Z,23.78
2022-08-11T23:45:09.530Z,23.76
2022-08-11T23:47:56.853Z,23.63
2022-08-11T23:50:42.714Z,23.49
2022-08-11T23:53:28.802Z,23.46
2022-08-11T23:56:14.520Z,23.42
2022-08-11T23:59:00.264Z,23.42
